Southlake's Hourly Summary for Tuesday, March 14, 2017
Hour Temp
(f)
RH
(%)
Solar Rad.
(MJ/m2)
Rainfall
(in)
Wind
(mph)
3/14/2017 12:00 AM 41 0 0 0 2.24
3/14/2017 1:00 AM 41 0 0 0 2.63
3/14/2017 2:00 AM 37 18 0 0 1.4
3/14/2017 3:00 AM 35 56 0 0 1.46
3/14/2017 4:00 AM 34 24 0 0 1.29
3/14/2017 5:00 AM 33 55 0 0 1.12
3/14/2017 6:00 AM 33 90 0 0 0.84
3/14/2017 7:00 AM 32 92 0.01 0 1.06
3/14/2017 8:00 AM 36 86 0.24 0 1.4
3/14/2017 9:00 AM 43 91 1.04 0 2.29
3/14/2017 10:00 AM 47 94 1.82 0 3.8
3/14/2017 11:00 AM 50 72 2.61 0 3.25
3/14/2017 12:00 PM 54 3 3.05 0 3.97
3/14/2017 1:00 PM 57 0 3.3 0 3.63
3/14/2017 2:00 PM 61 0 3.21 0 4.19
3/14/2017 3:00 PM 62 0 2.91 0 3.8
3/14/2017 4:00 PM 65 0 2.25 0 3.63
3/14/2017 5:00 PM 66 0 1.67 0 3.36
3/14/2017 6:00 PM 65 0 0.68 0 2.85
3/14/2017 7:00 PM 62 0 0.12 0 2.91
3/14/2017 8:00 PM 59 0 0 0 3.13
3/14/2017 9:00 PM 57 0 0 0 4.37
3/14/2017 10:00 PM 55 0 0 0 3.3
3/14/2017 11:00 PM 53 0 0 0 2.85
Data Summary 49 28 22.91 0.00 2.70